sensor_id;sensor_type;location;lat;lon;timestamp;pressure;altitude;pressure_sealevel;temperature;humidity
22872;BME280;11603;44.910;8.630;2022-11-02T00:01:39;101452.00;;;13.81;100.00
22872;BME280;11603;44.910;8.630;2022-11-02T00:04:06;101440.28;;;13.82;100.00
22872;BME280;11603;44.910;8.630;2022-11-02T00:06:31;101438.56;;;13.81;100.00
22872;BME280;11603;44.910;8.630;2022-11-02T00:08:57;101430.38;;;13.82;100.00
22872;BME280;11603;44.910;8.630;2022-11-02T00:11:22;101435.88;;;13.81;100.00
22872;BME280;11603;44.910;8.630;2022-11-02T00:13:48;101436.34;;;13.73;100.00
22872;BME280;11603;44.910;8.630;2022-11-02T00:16:15;101430.78;;;13.76;100.00
22872;BME280;11603;44.910;8.630;2022-11-02T00:18:44;101436.16;;;13.76;100.00
22872;BME280;11603;44.910;8.630;2022-11-02T00:21:11;101436.84;;;13.80;100.00
22872;BME280;11603;44.910;8.630;2022-11-02T00:23:40;101445.84;;;13.79;100.00
22872;BME280;11603;44.910;8.630;2022-11-02T00:26:06;101436.25;;;13.75;100.00
22872;BME280;11603;44.910;8.630;2022-11-02T00:28:31;101428.84;;;13.64;100.00
22872;BME280;11603;44.910;8.630;2022-11-02T00:30:57;101440.63;;;13.62;100.00
22872;BME280;11603;44.910;8.630;2022-11-02T00:33:25;101429.22;;;13.58;100.00
22872;BME280;11603;44.910;8.630;2022-11-02T00:35:52;101442.66;;;13.58;100.00
22872;BME280;11603;44.910;8.630;2022-11-02T00:38:18;101441.72;;;13.59;100.00
22872;BME280;11603;44.910;8.630;2022-11-02T00:40:44;101444.19;;;13.48;100.00
22872;BME280;11603;44.910;8.630;2022-11-02T00:43:09;101437.06;;;13.47;100.00
22872;BME280;11603;44.910;8.630;2022-11-02T00:45:35;101431.69;;;13.47;100.00
22872;BME280;11603;44.910;8.630;2022-11-02T00:48:01;101429.38;;;13.41;100.00
22872;BME280;11603;44.910;8.630;2022-11-02T00:50:28;101431.38;;;13.37;100.00
22872;BME280;11603;44.910;8.630;2022-11-02T00:52:54;101429.25;;;13.28;100.00
22872;BME280;11603;44.910;8.630;2022-11-02T00:55:19;101431.09;;;13.28;100.00
22872;BME280;11603;44.910;8.630;2022-11-02T00:57:46;101433.56;;;13.31;100.00
22872;BME280;11603;44.910;8.630;2022-11-02T01:00:12;101434.34;;;13.33;100.00
22872;BME280;11603;44.910;8.630;2022-11-02T01:02:40;101428.91;;;13.34;100.00
22872;BME280;11603;44.910;8.630;2022-11-02T01:05:08;101431.59;;;13.34;100.00
22872;BME280;11603;44.910;8.630;2022-11-02T01:07:33;101427.16;;;13.33;100.00
22872;BME280;11603;44.910;8.630;2022-11-02T01:09:59;101437.03;;;13.33;100.00
22872;BME280;11603;44.910;8.630;2022-11-02T01:12:25;101432.91;;;13.27;100.00
22872;BME280;11603;44.910;8.630;2022-11-02T01:14:50;101442.78;;;13.27;100.00
22872;BME280;11603;44.910;8.630;2022-11-02T01:17:17;101447.00;;;13.31;100.00
22872;BME280;11603;44.910;8.630;2022-11-02T01:19:43;101437.31;;;13.28;100.00
22872;BME280;11603;44.910;8.630;2022-11-02T01:22:08;101435.75;;;13.24;100.00
22872;BME280;11603;44.910;8.630;2022-11-02T01:24:34;101435.59;;;13.27;100.00
22872;BME280;11603;44.910;8.630;2022-11-02T01:27:01;101441.75;;;13.29;100.00
22872;BME280;11603;44.910;8.630;2022-11-02T01:29:26;101428.97;;;13.33;100.00
22872;BME280;11603;44.910;8.630;2022-11-02T01:31:52;101431.00;;;13.29;100.00
22872;BME280;11603;44.910;8.630;2022-11-02T01:34:20;101424.84;;;13.27;100.00
22872;BME280;11603;44.910;8.630;2022-11-02T01:36:46;101414.88;;;13.29;100.00
22872;BME280;11603;44.910;8.630;2022-11-02T01:39:13;101413.03;;;13.30;100.00
22872;BME280;11603;44.910;8.630;2022-11-02T01:41:39;101414.47;;;13.21;100.00
22872;BME280;11603;44.910;8.630;2022-11-02T01:44:24;101413.44;;;13.24;100.00
22872;BME280;11603;44.910;8.630;2022-11-02T01:46:52;101414.19;;;13.26;100.00
22872;BME280;11603;44.910;8.630;2022-11-02T01:49:20;101411.50;;;13.26;100.00
22872;BME280;11603;44.910;8.630;2022-11-02T01:52:14;101408.16;;;13.36;100.00
22872;BME280;11603;44.910;8.630;2022-11-02T01:54:56;101418.63;;;13.41;100.00
22872;BME280;11603;44.910;8.630;2022-11-02T01:57:24;101405.19;;;13.41;100.00
22872;BME280;11603;44.910;8.630;2022-11-02T02:00:11;101411.25;;;13.44;100.00
22872;BME280;11603;44.910;8.630;2022-11-02T02:05:19;101407.34;;;13.50;100.00
22872;BME280;11603;44.910;8.630;2022-11-02T02:07:46;101412.97;;;13.45;100.00
22872;BME280;11603;44.910;8.630;2022-11-02T02:10:12;101408.56;;;13.44;100.00
22872;BME280;11603;44.910;8.630;2022-11-02T02:12:40;101412.22;;;13.43;100.00
22872;BME280;11603;44.910;8.630;2022-11-02T02:15:07;101402.41;;;13.42;100.00
22872;BME280;11603;44.910;8.630;2022-11-02T02:20:47;101405.19;;;13.41;100.00
22872;BME280;11603;44.910;8.630;2022-11-02T02:26:41;101402.41;;;13.56;100.00
22872;BME280;11603;44.910;8.630;2022-11-02T02:31:47;101400.03;;;13.66;100.00
22872;BME280;11603;44.910;8.630;2022-11-02T02:34:19;101398.63;;;13.61;100.00
22872;BME280;11603;44.910;8.630;2022-11-02T02:37:07;101398.63;;;13.61;100.00
22872;BME280;11603;44.910;8.630;2022-11-02T02:39:56;101396.75;;;13.61;100.00
22872;BME280;11603;44.910;8.630;2022-11-02T02:42:43;101395.22;;;13.57;100.00
22872;BME280;11603;44.910;8.630;2022-11-02T02:47:53;101392.53;;;13.57;100.00
22872;BME280;11603;44.910;8.630;2022-11-02T02:50:26;101390.81;;;13.56;100.00
22872;BME280;11603;44.910;8.630;2022-11-02T02:52:54;101393.59;;;13.54;100.00
22872;BME280;11603;44.910;8.630;2022-11-02T02:55:34;101384.19;;;13.62;100.00
22872;BME280;11603;44.910;8.630;2022-11-02T02:58:02;101380.47;;;13.64;100.00
22872;BME280;11603;44.910;8.630;2022-11-02T03:00:29;101382.38;;;13.62;100.00
22872;BME280;11603;44.910;8.630;2022-11-02T03:02:58;101380.47;;;13.64;100.00
22872;BME280;11603;44.910;8.630;2022-11-02T03:05:31;101382.19;;;13.65;100.00
22872;BME280;11603;44.910;8.630;2022-11-02T03:08:06;101380.63;;;13.61;100.00
22872;BME280;11603;44.910;8.630;2022-11-02T03:10:42;101388.59;;;13.63;100.00
22872;BME280;11603;44.910;8.630;2022-11-02T03:18:52;101394.06;;;13.61;100.00
22872;BME280;11603;44.910;8.630;2022-11-02T03:21:33;101390.44;;;13.62;100.00
22872;BME280;11603;44.910;8.630;2022-11-02T03:24:15;101391.66;;;13.56;100.00
22872;BME280;11603;44.910;8.630;2022-11-02T03:29:17;101387.94;;;13.59;100.00
22872;BME280;11603;44.910;8.630;2022-11-02T03:37:28;101392.38;;;13.74;100.00
22872;BME280;11603;44.910;8.630;2022-11-02T03:42:26;101392.06;;;13.79;100.00
22872;BME280;11603;44.910;8.630;2022-11-02T03:45:06;101398.31;;;13.79;100.00
22872;BME280;11603;44.910;8.630;2022-11-02T03:47:36;101406.19;;;13.82;100.00
22872;BME280;11603;44.910;8.630;2022-11-02T03:50:08;101402.38;;;13.86;100.00
22872;BME280;11603;44.910;8.630;2022-11-02T03:52:39;101396.78;;;13.89;100.00
22872;BME280;11603;44.910;8.630;2022-11-02T03:57:46;101400.91;;;13.95;100.00
22872;BME280;11603;44.910;8.630;2022-11-02T04:02:52;101406.06;;;13.98;100.00
22872;BME280;11603;44.910;8.630;2022-11-02T04:05:19;101407.06;;;13.97;100.00
22872;BME280;11603;44.910;8.630;2022-11-02T04:07:49;101408.03;;;13.96;100.00
22872;BME280;11603;44.910;8.630;2022-11-02T04:10:52;101400.72;;;13.84;100.00
22872;BME280;11603;44.910;8.630;2022-11-02T04:13:38;101405.22;;;13.83;100.00
22872;BME280;11603;44.910;8.630;2022-11-02T04:16:24;101404.34;;;13.83;100.00
22872;BME280;11603;44.910;8.630;2022-11-02T04:18:50;101400.41;;;13.88;100.00
22872;BME280;11603;44.910;8.630;2022-11-02T04:21:36;101405.34;;;13.96;100.00
22872;BME280;11603;44.910;8.630;2022-11-02T04:24:03;101406.78;;;14.02;100.00
22872;BME280;11603;44.910;8.630;2022-11-02T04:26:47;101404.66;;;14.07;100.00
22872;BME280;11603;44.910;8.630;2022-11-02T04:29:15;101411.00;;;14.06;100.00
22872;BME280;11603;44.910;8.630;2022-11-02T04:31:41;101405.41;;;14.09;100.00
22872;BME280;11603;44.910;8.630;2022-11-02T04:34:07;101406.28;;;14.09;100.00
22872;BME280;11603;44.910;8.630;2022-11-02T04:36:33;101414.16;;;14.12;100.00
22872;BME280;11603;44.910;8.630;2022-11-02T04:38:59;101419.41;;;14.14;100.00
22872;BME280;11603;44.910;8.630;2022-11-02T04:41:27;101414.81;;;14.16;100.00
22872;BME280;11603;44.910;8.630;2022-11-02T04:44:28;101416.16;;;14.09;100.00
22872;BME280;11603;44.910;8.630;2022-11-02T04:46:59;101414.34;;;14.09;100.00
22872;BME280;11603;44.910;8.630;2022-11-02T04:49:28;101410.22;;;14.04;100.00
22872;BME280;11603;44.910;8.630;2022-11-02T04:51:54;101410.41;;;14.00;100.00
22872;BME280;11603;44.910;8.630;2022-11-02T04:54:19;101414.34;;;13.95;100.00
22872;BME280;11603;44.910;8.630;2022-11-02T04:56:49;101417.13;;;13.93;100.00
22872;BME280;11603;44.910;8.630;2022-11-02T04:59:17;101422.91;;;13.87;100.00
22872;BME280;11603;44.910;8.630;2022-11-02T05:01:42;101420.50;;;13.83;100.00
22872;BME280;11603;44.910;8.630;2022-11-02T05:04:09;101413.38;;;13.82;100.00
22872;BME280;11603;44.910;8.630;2022-11-02T05:06:35;101419.53;;;13.84;100.00
22872;BME280;11603;44.910;8.630;2022-11-02T05:09:02;101420.19;;;13.87;100.00
22872;BME280;11603;44.910;8.630;2022-11-02T05:11:28;101419.66;;;13.96;100.00
22872;BME280;11603;44.910;8.630;2022-11-02T05:13:55;101419.06;;;14.06;100.00
22872;BME280;11603;44.910;8.630;2022-11-02T05:16:20;101413.69;;;14.06;100.00
22872;BME280;11603;44.910;8.630;2022-11-02T05:18:48;101413.75;;;14.04;100.00
22872;BME280;11603;44.910;8.630;2022-11-02T05:21:16;101416.38;;;14.06;100.00
22872;BME280;11603;44.910;8.630;2022-11-02T05:23:41;101424.94;;;14.12;100.00
22872;BME280;11603;44.910;8.630;2022-11-02T05:26:10;101422.13;;;14.14;100.00
22872;BME280;11603;44.910;8.630;2022-11-02T05:28:39;101428.28;;;14.16;100.00
22872;BME280;11603;44.910;8.630;2022-11-02T05:31:05;101435.28;;;14.04;100.00
22872;BME280;11603;44.910;8.630;2022-11-02T05:33:33;101431.56;;;14.07;100.00
22872;BME280;11603;44.910;8.630;2022-11-02T05:36:04;101430.31;;;14.12;100.00
22872;BME280;11603;44.910;8.630;2022-11-02T05:38:32;101425.88;;;14.11;100.00
22872;BME280;11603;44.910;8.630;2022-11-02T05:40:59;101429.91;;;14.18;100.00
22872;BME280;11603;44.910;8.630;2022-11-02T05:43:28;101428.47;;;14.13;100.00
22872;BME280;11603;44.910;8.630;2022-11-02T05:45:59;101432.78;;;14.15;100.00
22872;BME280;11603;44.910;8.630;2022-11-02T05:48:25;101440.47;;;14.21;100.00
22872;BME280;11603;44.910;8.630;2022-11-02T05:50:59;101440.38;;;14.23;100.00
22872;BME280;11603;44.910;8.630;2022-11-02T05:53:25;101440.56;;;14.20;100.00
22872;BME280;11603;44.910;8.630;2022-11-02T05:55:55;101444.03;;;14.22;100.00
22872;BME280;11603;44.910;8.630;2022-11-02T05:58:21;101436.25;;;14.17;100.00
22872;BME280;11603;44.910;8.630;2022-11-02T06:00:46;101444.78;;;14.24;100.00
22872;BME280;11603;44.910;8.630;2022-11-02T06:03:12;101451.72;;;14.28;100.00
22872;BME280;11603;44.910;8.630;2022-11-02T06:05:37;101448.03;;;14.29;100.00
22872;BME280;11603;44.910;8.630;2022-11-02T06:08:03;101449.69;;;14.31;100.00
22872;BME280;11603;44.910;8.630;2022-11-02T06:10:29;101453.25;;;14.32;100.00
22872;BME280;11603;44.910;8.630;2022-11-02T06:12:57;101451.59;;;14.29;100.00
22872;BME280;11603;44.910;8.630;2022-11-02T06:15:23;101455.84;;;14.33;100.00
22872;BME280;11603;44.910;8.630;2022-11-02T06:17:48;101460.38;;;14.33;100.00
22872;BME280;11603;44.910;8.630;2022-11-02T06:20:16;101459.50;;;14.32;100.00
22872;BME280;11603;44.910;8.630;2022-11-02T06:22:42;101465.47;;;14.37;100.00
22872;BME280;11603;44.910;8.630;2022-11-02T06:25:08;101461.72;;;14.40;100.00
22872;BME280;11603;44.910;8.630;2022-11-02T06:27:34;101459.81;;;14.42;100.00
22872;BME280;11603;44.910;8.630;2022-11-02T06:29:59;101456.91;;;14.45;100.00
22872;BME280;11603;44.910;8.630;2022-11-02T06:32:25;101465.84;;;14.46;100.00
22872;BME280;11603;44.910;8.630;2022-11-02T06:34:50;101465.84;;;14.46;100.00
22872;BME280;11603;44.910;8.630;2022-11-02T06:37:16;101466.06;;;14.43;100.00
22872;BME280;11603;44.910;8.630;2022-11-02T06:39:41;101463.44;;;14.41;100.00
22872;BME280;11603;44.910;8.630;2022-11-02T06:42:07;101464.09;;;14.45;100.00
22872;BME280;11603;44.910;8.630;2022-11-02T06:44:33;101471.22;;;14.46;100.00
22872;BME280;11603;44.910;8.630;2022-11-02T06:46:58;101453.16;;;14.48;100.00
22872;BME280;11603;44.910;8.630;2022-11-02T06:49:24;101454.78;;;14.50;100.00
22872;BME280;11603;44.910;8.630;2022-11-02T06:51:50;101467.28;;;14.51;100.00
22872;BME280;11603;44.910;8.630;2022-11-02T06:54:15;101452.56;;;14.57;100.00
22872;BME280;11603;44.910;8.630;2022-11-02T06:56:41;101465.28;;;14.55;100.00
22872;BME280;11603;44.910;8.630;2022-11-02T06:59:06;101474.13;;;14.43;100.00
22872;BME280;11603;44.910;8.630;2022-11-02T07:01:32;101477.78;;;14.41;100.00
22872;BME280;11603;44.910;8.630;2022-11-02T07:04:00;101470.56;;;14.42;100.00
22872;BME280;11603;44.910;8.630;2022-11-02T07:06:26;101475.28;;;14.38;100.00
22872;BME280;11603;44.910;8.630;2022-11-02T07:08:53;101477.13;;;14.38;100.00
22872;BME280;11603;44.910;8.630;2022-11-02T07:11:18;101480.47;;;14.41;100.00
22872;BME280;11603;44.910;8.630;2022-11-02T07:13:44;101487.50;;;14.44;100.00
22872;BME280;11603;44.910;8.630;2022-11-02T07:16:09;101489.97;;;14.47;100.00
22872;BME280;11603;44.910;8.630;2022-11-02T07:18:35;101487.94;;;14.51;100.00
22872;BME280;11603;44.910;8.630;2022-11-02T07:21:01;101489.78;;;14.50;100.00
22872;BME280;11603;44.910;8.630;2022-11-02T07:23:27;101504.22;;;14.49;100.00
22872;BME280;11603;44.910;8.630;2022-11-02T07:25:52;101502.66;;;14.45;100.00
22872;BME280;11603;44.910;8.630;2022-11-02T07:28:18;101510.66;;;14.47;100.00
22872;BME280;11603;44.910;8.630;2022-11-02T07:30:43;101520.28;;;14.36;100.00
22872;BME280;11603;44.910;8.630;2022-11-02T07:33:09;101521.72;;;14.42;100.00
22872;BME280;11603;44.910;8.630;2022-11-02T07:35:35;101524.09;;;14.47;100.00
22872;BME280;11603;44.910;8.630;2022-11-02T07:38:03;101525.84;;;14.48;100.00
22872;BME280;11603;44.910;8.630;2022-11-02T07:40:30;101525.84;;;14.48;100.00
22872;BME280;11603;44.910;8.630;2022-11-02T07:42:57;101529.88;;;14.40;100.00
22872;BME280;11603;44.910;8.630;2022-11-02T07:45:39;101531.38;;;14.30;100.00
22872;BME280;11603;44.910;8.630;2022-11-02T07:48:04;101537.56;;;14.32;100.00
22872;BME280;11603;44.910;8.630;2022-11-02T07:50:30;101534.31;;;14.41;100.00
22872;BME280;11603;44.910;8.630;2022-11-02T07:52:56;101539.38;;;14.32;100.00
22872;BME280;11603;44.910;8.630;2022-11-02T07:55:29;101539.84;;;14.24;100.00
22872;BME280;11603;44.910;8.630;2022-11-02T07:57:58;101540.63;;;14.26;100.00
22872;BME280;11603;44.910;8.630;2022-11-02T08:00:25;101537.34;;;14.35;100.00
22872;BME280;11603;44.910;8.630;2022-11-02T08:02:58;101540.84;;;14.37;100.00
22872;BME280;11603;44.910;8.630;2022-11-02T08:05:25;101537.66;;;14.45;100.00
22872;BME280;11603;44.910;8.630;2022-11-02T08:08:03;101537.47;;;14.48;100.00
22872;BME280;11603;44.910;8.630;2022-11-02T08:10:30;101522.84;;;14.52;100.00
22872;BME280;11603;44.910;8.630;2022-11-02T08:12:56;101529.69;;;14.58;100.00
22872;BME280;11603;44.910;8.630;2022-11-02T08:15:22;101528.22;;;14.66;100.00
22872;BME280;11603;44.910;8.630;2022-11-02T08:18:04;101519.56;;;14.75;100.00
22872;BME280;11603;44.910;8.630;2022-11-02T08:20:31;101526.19;;;14.84;100.00
22872;BME280;11603;44.910;8.630;2022-11-02T08:22:56;101528.22;;;14.66;100.00
22872;BME280;11603;44.910;8.630;2022-11-02T08:25:22;101520.06;;;14.68;100.00
22872;BME280;11603;44.910;8.630;2022-11-02T08:27:48;101521.84;;;14.81;100.00
22872;BME280;11603;44.910;8.630;2022-11-02T08:30:13;101519.31;;;14.93;100.00
22872;BME280;11603;44.910;8.630;2022-11-02T08:32:39;101509.41;;;14.93;100.00
22872;BME280;11603;44.910;8.630;2022-11-02T08:35:05;101510.91;;;14.97;100.00
22872;BME280;11603;44.910;8.630;2022-11-02T08:37:30;101510.66;;;15.02;100.00
22872;BME280;11603;44.910;8.630;2022-11-02T08:39:56;101507.97;;;15.02;100.00
22872;BME280;11603;44.910;8.630;2022-11-02T08:42:21;101504.47;;;15.00;100.00
22872;BME280;11603;44.910;8.630;2022-11-02T08:44:46;101504.38;;;15.01;100.00
22872;BME280;11603;44.910;8.630;2022-11-02T08:47:12;101500.84;;;15.01;100.00
22872;BME280;11603;44.910;8.630;2022-11-02T08:49:39;101497.44;;;15.11;100.00
22872;BME280;11603;44.910;8.630;2022-11-02T08:52:04;101494.41;;;15.16;100.00
22872;BME280;11603;44.910;8.630;2022-11-02T08:54:30;101489.91;;;15.16;100.00
22872;BME280;11603;44.910;8.630;2022-11-02T08:56:55;101487.63;;;15.23;100.00
22872;BME280;11603;44.910;8.630;2022-11-02T08:59:21;101488.88;;;15.32;100.00
22872;BME280;11603;44.910;8.630;2022-11-02T09:01:46;101484.97;;;15.36;100.00
22872;BME280;11603;44.910;8.630;2022-11-02T09:04:11;101483.25;;;15.35;100.00
22872;BME280;11603;44.910;8.630;2022-11-02T09:06:37;101484.56;;;15.42;100.00
22872;BME280;11603;44.910;8.630;2022-11-02T09:09:02;101476.94;;;15.48;100.00
22872;BME280;11603;44.910;8.630;2022-11-02T09:11:28;101471.16;;;15.54;100.00
22872;BME280;11603;44.910;8.630;2022-11-02T09:13:54;101470.94;;;15.57;100.00
22872;BME280;11603;44.910;8.630;2022-11-02T09:16:19;101469.97;;;15.58;100.00
22872;BME280;11603;44.910;8.630;2022-11-02T09:18:45;101477.25;;;15.44;100.00
22872;BME280;11603;44.910;8.630;2022-11-02T09:21:10;101466.66;;;15.41;100.00
22872;BME280;11603;44.910;8.630;2022-11-02T09:23:36;101468.59;;;15.39;100.00
22872;BME280;11603;44.910;8.630;2022-11-02T09:26:01;101465.97;;;15.24;100.00
22872;BME280;11603;44.910;8.630;2022-11-02T09:28:27;101476.81;;;15.10;100.00
22872;BME280;11603;44.910;8.630;2022-11-02T09:30:52;101478.56;;;15.11;100.00
22872;BME280;11603;44.910;8.630;2022-11-02T09:33:18;101474.78;;;15.14;100.00
22872;BME280;11603;44.910;8.630;2022-11-02T09:35:46;101473.16;;;15.11;100.00
22872;BME280;11603;44.910;8.630;2022-11-02T09:38:12;101479.53;;;15.10;100.00
22872;BME280;11603;44.910;8.630;2022-11-02T09:41:10;101482.13;;;15.12;100.00
22872;BME280;11603;44.910;8.630;2022-11-02T09:43:56;101485.16;;;15.20;100.00
22872;BME280;11603;44.910;8.630;2022-11-02T09:46:44;101487.91;;;15.33;100.00
22872;BME280;11603;44.910;8.630;2022-11-02T09:49:18;101485.84;;;15.36;100.00
22872;BME280;11603;44.910;8.630;2022-11-02T09:56:40;101502.66;;;15.54;100.00
22872;BME280;11603;44.910;8.630;2022-11-02T09:59:15;101500.38;;;15.60;100.00
22872;BME280;11603;44.910;8.630;2022-11-02T10:09:56;101508.19;;;15.38;100.00
22872;BME280;11603;44.910;8.630;2022-11-02T10:12:30;101506.66;;;15.34;100.00
22872;BME280;11603;44.910;8.630;2022-11-02T10:15:04;101517.09;;;15.26;100.00
22872;BME280;11603;44.910;8.630;2022-11-02T10:17:35;101503.84;;;15.36;100.00
22872;BME280;11603;44.910;8.630;2022-11-02T10:20:14;101510.03;;;15.50;100.00
22872;BME280;11603;44.910;8.630;2022-11-02T10:22:43;101501.91;;;15.64;100.00
22872;BME280;11603;44.910;8.630;2022-11-02T10:25:13;101504.41;;;15.67;100.00
22872;BME280;11603;44.910;8.630;2022-11-02T10:27:42;101505.25;;;15.81;100.00
22872;BME280;11603;44.910;8.630;2022-11-02T10:30:16;101497.38;;;15.78;100.00
22872;BME280;11603;44.910;8.630;2022-11-02T10:32:43;101499.66;;;15.84;100.00
22872;BME280;11603;44.910;8.630;2022-11-02T10:38:09;101493.94;;;15.88;100.00
22872;BME280;11603;44.910;8.630;2022-11-02T10:49:13;101476.16;;;15.86;100.00
22872;BME280;11603;44.910;8.630;2022-11-02T10:51:36;101468.91;;;15.86;100.00
22872;BME280;11603;44.910;8.630;2022-11-02T10:54:11;101471.72;;;15.97;100.00
22872;BME280;11603;44.910;8.630;2022-11-02T10:56:38;101467.28;;;16.09;100.00
22872;BME280;11603;44.910;8.630;2022-11-02T10:59:19;101464.13;;;16.28;100.00
22872;BME280;11603;44.910;8.630;2022-11-02T11:04:29;101452.81;;;16.72;100.00
22872;BME280;11603;44.910;8.630;2022-11-02T11:06:56;101456.44;;;16.83;100.00
22872;BME280;11603;44.910;8.630;2022-11-02T11:09:27;101457.69;;;16.90;100.00
22872;BME280;11603;44.910;8.630;2022-11-02T11:12:02;101451.47;;;16.90;100.00
22872;BME280;11603;44.910;8.630;2022-11-02T11:14:29;101456.03;;;16.77;100.00
22872;BME280;11603;44.910;8.630;2022-11-02T11:17:01;101445.31;;;16.75;100.00
22872;BME280;11603;44.910;8.630;2022-11-02T11:19:35;101442.75;;;16.74;100.00
22872;BME280;11603;44.910;8.630;2022-11-02T11:22:01;101432.63;;;16.65;100.00
22872;BME280;11603;44.910;8.630;2022-11-02T11:24:32;101434.13;;;16.69;100.00
22872;BME280;11603;44.910;8.630;2022-11-02T11:29:45;101431.00;;;16.49;100.00
22872;BME280;11603;44.910;8.630;2022-11-02T11:32:21;101426.91;;;16.57;100.00
22872;BME280;11603;44.910;8.630;2022-11-02T11:35:02;101423.44;;;16.67;100.00
22872;BME280;11603;44.910;8.630;2022-11-02T11:37:29;101428.06;;;16.65;100.00
22872;BME280;11603;44.910;8.630;2022-11-02T11:39:59;101424.84;;;16.60;100.00
22872;BME280;11603;44.910;8.630;2022-11-02T11:42:27;101416.41;;;16.65;100.00
22872;BME280;11603;44.910;8.630;2022-11-02T11:47:25;101393.72;;;16.67;100.00
22872;BME280;11603;44.910;8.630;2022-11-02T11:49:52;101400.91;;;16.79;100.00
22872;BME280;11603;44.910;8.630;2022-11-02T11:52:27;101397.91;;;16.71;100.00
22872;BME280;11603;44.910;8.630;2022-11-02T11:54:56;101398.41;;;16.76;100.00
22872;BME280;11603;44.910;8.630;2022-11-02T11:57:25;101391.94;;;16.79;100.00
22872;BME280;11603;44.910;8.630;2022-11-02T11:59:52;101394.47;;;16.69;100.00
22872;BME280;11603;44.910;8.630;2022-11-02T12:05:14;101384.41;;;16.71;100.00
22872;BME280;11603;44.910;8.630;2022-11-02T12:10:40;101374.34;;;16.73;100.00
22872;BME280;11603;44.910;8.630;2022-11-02T12:13:30;101364.09;;;16.66;100.00
22872;BME280;11603;44.910;8.630;2022-11-02T12:21:26;101357.16;;;16.74;100.00
22872;BME280;11603;44.910;8.630;2022-11-02T12:31:44;101352.28;;;16.79;100.00
22872;BME280;11603;44.910;8.630;2022-11-02T12:39:29;101338.91;;;16.89;100.00
22872;BME280;11603;44.910;8.630;2022-11-02T12:47:54;101331.50;;;17.15;100.00
22872;BME280;11603;44.910;8.630;2022-11-02T12:55:48;101323.59;;;17.01;100.00
22872;BME280;11603;44.910;8.630;2022-11-02T12:58:28;101318.81;;;17.04;100.00
22872;BME280;11603;44.910;8.630;2022-11-02T13:03:40;101315.59;;;16.99;100.00
22872;BME280;11603;44.910;8.630;2022-11-02T13:06:11;101318.91;;;17.03;100.00
22872;BME280;11603;44.910;8.630;2022-11-02T13:08:48;101317.44;;;16.99;100.00
22872;BME280;11603;44.910;8.630;2022-11-02T13:11:29;101316.69;;;16.97;100.00
22872;BME280;11603;44.910;8.630;2022-11-02T13:13:57;101317.56;;;16.97;100.00
22872;BME280;11603;44.910;8.630;2022-11-02T13:16:58;101322.97;;;16.97;100.00
22872;BME280;11603;44.910;8.630;2022-11-02T13:19:34;101318.38;;;16.86;100.00
22872;BME280;11603;44.910;8.630;2022-11-02T13:22:02;101311.38;;;16.84;100.00
22872;BME280;11603;44.910;8.630;2022-11-02T13:24:43;101306.44;;;16.78;100.00
22872;BME280;11603;44.910;8.630;2022-11-02T13:27:25;101295.13;;;16.73;100.00
22872;BME280;11603;44.910;8.630;2022-11-02T13:29:55;101289.13;;;16.80;100.00
22872;BME280;11603;44.910;8.630;2022-11-02T13:35:46;101284.19;;;17.09;100.00
22872;BME280;11603;44.910;8.630;2022-11-02T13:40:46;101284.81;;;17.24;100.00
22872;BME280;11603;44.910;8.630;2022-11-02T13:51:23;101274.47;;;17.29;100.00
22872;BME280;11603;44.910;8.630;2022-11-02T13:56:29;101270.59;;;17.77;100.00
22872;BME280;11603;44.910;8.630;2022-11-02T13:59:01;101274.75;;;17.93;100.00
22872;BME280;11603;44.910;8.630;2022-11-02T14:01:30;101271.91;;;18.05;100.00
22872;BME280;11603;44.910;8.630;2022-11-02T14:04:06;101265.34;;;18.08;100.00
22872;BME280;11603;44.910;8.630;2022-11-02T14:09:40;101263.03;;;18.03;100.00
22872;BME280;11603;44.910;8.630;2022-11-02T14:14:37;101271.06;;;17.94;100.00
22872;BME280;11603;44.910;8.630;2022-11-02T14:17:15;101272.91;;;17.93;100.00
22872;BME280;11603;44.910;8.630;2022-11-02T14:22:17;101264.53;;;17.85;100.00
22872;BME280;11603;44.910;8.630;2022-11-02T14:34:57;101262.22;;;17.58;100.00
22872;BME280;11603;44.910;8.630;2022-11-02T14:48:12;101262.56;;;17.54;100.00
22872;BME280;11603;44.910;8.630;2022-11-02T14:50:41;101262.81;;;17.51;100.00
22872;BME280;11603;44.910;8.630;2022-11-02T14:53:18;101248.31;;;17.41;100.00
22872;BME280;11603;44.910;8.630;2022-11-02T14:55:52;101267.13;;;17.31;100.00
22872;BME280;11603;44.910;8.630;2022-11-02T14:58:19;101257.41;;;17.28;100.00
22872;BME280;11603;44.910;8.630;2022-11-02T15:11:56;101256.25;;;16.98;100.00
22872;BME280;11603;44.910;8.630;2022-11-02T15:17:00;101257.00;;;17.00;100.00
22872;BME280;11603;44.910;8.630;2022-11-02T15:19:35;101253.81;;;17.06;100.00
22872;BME280;11603;44.910;8.630;2022-11-02T15:22:40;101255.16;;;17.00;100.00
22872;BME280;11603;44.910;8.630;2022-11-02T15:25:40;101250.75;;;16.99;100.00
22872;BME280;11603;44.910;8.630;2022-11-02T15:28:13;101242.03;;;16.96;100.00
22872;BME280;11603;44.910;8.630;2022-11-02T15:30:43;101249.75;;;17.00;100.00
22872;BME280;11603;44.910;8.630;2022-11-02T15:33:19;101250.00;;;17.08;100.00
22872;BME280;11603;44.910;8.630;2022-11-02T15:35:50;101254.66;;;17.06;100.00
22872;BME280;11603;44.910;8.630;2022-11-02T15:38:24;101247.66;;;16.92;100.00
22872;BME280;11603;44.910;8.630;2022-11-02T15:41:04;101251.91;;;16.73;100.00